sensor_id;sensor_type;location;lat;lon;timestamp;P1;durP1;ratioP1;P2;durP2;ratioP2
48375;SDS011;34178;50.904;11.560;2023-01-08T00:01:22;10.70;;;5.60;;
48375;SDS011;34178;50.904;11.560;2023-01-08T00:03:48;9.55;;;5.57;;
48375;SDS011;34178;50.904;11.560;2023-01-08T00:06:15;10.77;;;5.68;;
48375;SDS011;34178;50.904;11.560;2023-01-08T00:08:42;11.25;;;6.30;;
48375;SDS011;34178;50.904;11.560;2023-01-08T00:11:09;9.65;;;5.70;;
48375;SDS011;34178;50.904;11.560;2023-01-08T00:13:35;10.60;;;5.63;;
48375;SDS011;34178;50.904;11.560;2023-01-08T00:16:04;9.77;;;6.00;;
48375;SDS011;34178;50.904;11.560;2023-01-08T00:18:32;9.38;;;5.32;;
48375;SDS011;34178;50.904;11.560;2023-01-08T00:20:58;8.73;;;4.90;;
48375;SDS011;34178;50.904;11.560;2023-01-08T00:23:24;9.48;;;4.88;;
48375;SDS011;34178;50.904;11.560;2023-01-08T00:25:50;10.50;;;5.28;;
48375;SDS011;34178;50.904;11.560;2023-01-08T00:28:16;10.02;;;5.10;;
48375;SDS011;34178;50.904;11.560;2023-01-08T00:30:42;11.48;;;5.72;;
48375;SDS011;34178;50.904;11.560;2023-01-08T00:33:08;10.20;;;5.65;;
48375;SDS011;34178;50.904;11.560;2023-01-08T00:35:36;8.82;;;4.88;;
48375;SDS011;34178;50.904;11.560;2023-01-08T00:38:02;9.15;;;4.85;;
48375;SDS011;34178;50.904;11.560;2023-01-08T00:40:28;8.23;;;4.88;;
48375;SDS011;34178;50.904;11.560;2023-01-08T00:42:53;9.23;;;5.00;;
48375;SDS011;34178;50.904;11.560;2023-01-08T00:45:19;10.48;;;5.50;;
48375;SDS011;34178;50.904;11.560;2023-01-08T00:47:45;9.02;;;4.82;;
48375;SDS011;34178;50.904;11.560;2023-01-08T00:50:10;9.52;;;5.25;;
48375;SDS011;34178;50.904;11.560;2023-01-08T00:52:37;9.85;;;4.55;;
48375;SDS011;34178;50.904;11.560;2023-01-08T00:55:03;9.15;;;5.07;;
48375;SDS011;34178;50.904;11.560;2023-01-08T00:57:32;10.55;;;5.15;;
48375;SDS011;34178;50.904;11.560;2023-01-08T00:59:58;10.63;;;5.38;;
48375;SDS011;34178;50.904;11.560;2023-01-08T01:02:24;8.88;;;5.15;;
48375;SDS011;34178;50.904;11.560;2023-01-08T01:04:51;7.75;;;4.65;;
48375;SDS011;34178;50.904;11.560;2023-01-08T01:07:17;9.57;;;5.10;;
48375;SDS011;34178;50.904;11.560;2023-01-08T01:09:43;8.90;;;4.93;;
48375;SDS011;34178;50.904;11.560;2023-01-08T01:12:09;9.27;;;5.40;;
48375;SDS011;34178;50.904;11.560;2023-01-08T01:14:35;10.90;;;5.30;;
48375;SDS011;34178;50.904;11.560;2023-01-08T01:17:02;8.98;;;5.50;;
48375;SDS011;34178;50.904;11.560;2023-01-08T01:19:27;9.63;;;5.43;;
48375;SDS011;34178;50.904;11.560;2023-01-08T01:21:53;8.93;;;4.85;;
48375;SDS011;34178;50.904;11.560;2023-01-08T01:24:19;9.73;;;5.35;;
48375;SDS011;34178;50.904;11.560;2023-01-08T01:26:47;10.30;;;5.30;;
48375;SDS011;34178;50.904;11.560;2023-01-08T01:29:13;8.43;;;5.00;;
48375;SDS011;34178;50.904;11.560;2023-01-08T01:31:39;8.68;;;4.47;;
48375;SDS011;34178;50.904;11.560;2023-01-08T01:34:04;11.00;;;5.38;;
48375;SDS011;34178;50.904;11.560;2023-01-08T01:36:30;9.48;;;4.88;;
48375;SDS011;34178;50.904;11.560;2023-01-08T01:38:56;8.82;;;4.72;;
48375;SDS011;34178;50.904;11.560;2023-01-08T01:41:34;10.75;;;5.68;;
48375;SDS011;34178;50.904;11.560;2023-01-08T01:47:00;9.15;;;5.15;;
48375;SDS011;34178;50.904;11.560;2023-01-08T01:49:30;12.65;;;5.18;;
48375;SDS011;34178;50.904;11.560;2023-01-08T01:51:57;9.02;;;4.82;;
48375;SDS011;34178;50.904;11.560;2023-01-08T01:54:28;8.38;;;4.50;;
48375;SDS011;34178;50.904;11.560;2023-01-08T01:56:55;12.13;;;4.75;;
48375;SDS011;34178;50.904;11.560;2023-01-08T01:59:21;11.02;;;5.18;;
48375;SDS011;34178;50.904;11.560;2023-01-08T02:01:47;9.77;;;5.22;;
48375;SDS011;34178;50.904;11.560;2023-01-08T02:04:14;8.52;;;5.53;;
48375;SDS011;34178;50.904;11.560;2023-01-08T02:06:58;7.85;;;4.45;;
48375;SDS011;34178;50.904;11.560;2023-01-08T02:09:55;8.43;;;4.43;;
48375;SDS011;34178;50.904;11.560;2023-01-08T02:12:33;9.85;;;4.78;;
48375;SDS011;34178;50.904;11.560;2023-01-08T02:15:17;8.85;;;4.97;;
48375;SDS011;34178;50.904;11.560;2023-01-08T02:18:17;7.85;;;4.50;;
48375;SDS011;34178;50.904;11.560;2023-01-08T02:21:03;8.88;;;4.57;;
48375;SDS011;34178;50.904;11.560;2023-01-08T02:29:02;7.28;;;4.07;;
48375;SDS011;34178;50.904;11.560;2023-01-08T02:31:31;9.48;;;5.07;;
48375;SDS011;34178;50.904;11.560;2023-01-08T02:33:59;8.40;;;4.30;;
48375;SDS011;34178;50.904;11.560;2023-01-08T02:41:27;8.40;;;4.50;;
48375;SDS011;34178;50.904;11.560;2023-01-08T02:44:18;8.23;;;4.57;;
48375;SDS011;34178;50.904;11.560;2023-01-08T02:46:48;8.55;;;4.22;;
48375;SDS011;34178;50.904;11.560;2023-01-08T02:49:17;8.40;;;4.80;;
48375;SDS011;34178;50.904;11.560;2023-01-08T02:51:48;8.30;;;4.60;;
48375;SDS011;34178;50.904;11.560;2023-01-08T02:54:19;8.90;;;4.45;;
48375;SDS011;34178;50.904;11.560;2023-01-08T02:56:52;9.43;;;5.07;;
48375;SDS011;34178;50.904;11.560;2023-01-08T02:59:23;7.85;;;4.78;;
48375;SDS011;34178;50.904;11.560;2023-01-08T03:01:50;8.10;;;4.55;;
48375;SDS011;34178;50.904;11.560;2023-01-08T03:04:17;8.35;;;4.50;;
48375;SDS011;34178;50.904;11.560;2023-01-08T03:06:45;8.60;;;4.40;;
48375;SDS011;34178;50.904;11.560;2023-01-08T03:09:12;9.07;;;4.55;;
48375;SDS011;34178;50.904;11.560;2023-01-08T03:11:41;7.53;;;4.45;;
48375;SDS011;34178;50.904;11.560;2023-01-08T03:14:19;7.60;;;4.20;;
48375;SDS011;34178;50.904;11.560;2023-01-08T03:19:59;9.07;;;4.15;;
48375;SDS011;34178;50.904;11.560;2023-01-08T03:22:29;8.40;;;4.47;;
48375;SDS011;34178;50.904;11.560;2023-01-08T03:24:57;8.80;;;4.43;;
48375;SDS011;34178;50.904;11.560;2023-01-08T03:27:24;7.80;;;4.00;;
48375;SDS011;34178;50.904;11.560;2023-01-08T03:29:53;8.23;;;4.03;;
48375;SDS011;34178;50.904;11.560;2023-01-08T03:32:22;8.23;;;4.15;;
48375;SDS011;34178;50.904;11.560;2023-01-08T03:34:50;10.55;;;4.20;;
48375;SDS011;34178;50.904;11.560;2023-01-08T03:37:22;8.55;;;4.07;;
48375;SDS011;34178;50.904;11.560;2023-01-08T03:39:58;7.00;;;4.00;;
48375;SDS011;34178;50.904;11.560;2023-01-08T03:42:31;7.50;;;3.60;;
48375;SDS011;34178;50.904;11.560;2023-01-08T03:45:00;8.85;;;4.15;;
48375;SDS011;34178;50.904;11.560;2023-01-08T03:47:27;10.68;;;4.35;;
48375;SDS011;34178;50.904;11.560;2023-01-08T03:49:57;9.82;;;4.20;;
48375;SDS011;34178;50.904;11.560;2023-01-08T03:52:30;6.53;;;3.42;;
48375;SDS011;34178;50.904;11.560;2023-01-08T03:54:57;7.15;;;3.88;;
48375;SDS011;34178;50.904;11.560;2023-01-08T03:57:23;7.32;;;4.10;;
48375;SDS011;34178;50.904;11.560;2023-01-08T03:59:49;7.70;;;4.35;;
48375;SDS011;34178;50.904;11.560;2023-01-08T04:02:15;8.15;;;4.35;;
48375;SDS011;34178;50.904;11.560;2023-01-08T04:04:41;7.68;;;4.28;;
48375;SDS011;34178;50.904;11.560;2023-01-08T04:07:07;12.60;;;4.53;;
48375;SDS011;34178;50.904;11.560;2023-01-08T04:09:35;9.35;;;4.45;;
48375;SDS011;34178;50.904;11.560;2023-01-08T04:12:01;8.15;;;4.00;;
48375;SDS011;34178;50.904;11.560;2023-01-08T04:14:27;7.47;;;4.30;;
48375;SDS011;34178;50.904;11.560;2023-01-08T04:16:53;8.38;;;3.95;;
48375;SDS011;34178;50.904;11.560;2023-01-08T04:19:18;7.90;;;4.10;;
48375;SDS011;34178;50.904;11.560;2023-01-08T04:21:44;7.18;;;3.35;;
48375;SDS011;34178;50.904;11.560;2023-01-08T04:24:10;7.80;;;3.88;;
48375;SDS011;34178;50.904;11.560;2023-01-08T04:26:36;7.57;;;3.92;;
48375;SDS011;34178;50.904;11.560;2023-01-08T04:29:02;7.15;;;3.60;;
48375;SDS011;34178;50.904;11.560;2023-01-08T04:31:28;7.15;;;3.65;;
48375;SDS011;34178;50.904;11.560;2023-01-08T04:33:55;11.38;;;4.80;;
48375;SDS011;34178;50.904;11.560;2023-01-08T04:36:20;7.05;;;4.10;;
48375;SDS011;34178;50.904;11.560;2023-01-08T04:38:46;13.85;;;6.47;;
48375;SDS011;34178;50.904;11.560;2023-01-08T04:41:12;9.98;;;5.03;;
48375;SDS011;34178;50.904;11.560;2023-01-08T04:43:37;10.57;;;5.75;;
48375;SDS011;34178;50.904;11.560;2023-01-08T04:46:03;9.48;;;4.50;;
48375;SDS011;34178;50.904;11.560;2023-01-08T04:48:32;8.60;;;4.10;;
48375;SDS011;34178;50.904;11.560;2023-01-08T04:50:59;13.55;;;5.80;;
48375;SDS011;34178;50.904;11.560;2023-01-08T04:53:26;21.00;;;9.98;;
48375;SDS011;34178;50.904;11.560;2023-01-08T04:55:51;27.35;;;11.48;;
48375;SDS011;34178;50.904;11.560;2023-01-08T04:58:18;24.80;;;11.25;;
48375;SDS011;34178;50.904;11.560;2023-01-08T05:00:44;23.15;;;9.38;;
48375;SDS011;34178;50.904;11.560;2023-01-08T05:03:09;23.23;;;9.75;;
48375;SDS011;34178;50.904;11.560;2023-01-08T05:05:36;38.08;;;16.38;;
48375;SDS011;34178;50.904;11.560;2023-01-08T05:08:02;71.32;;;26.92;;
48375;SDS011;34178;50.904;11.560;2023-01-08T05:10:28;125.47;;;48.38;;
48375;SDS011;34178;50.904;11.560;2023-01-08T05:12:58;90.63;;;34.50;;
48375;SDS011;34178;50.904;11.560;2023-01-08T05:15:24;94.07;;;36.55;;
48375;SDS011;34178;50.904;11.560;2023-01-08T05:17:56;68.68;;;28.55;;
48375;SDS011;34178;50.904;11.560;2023-01-08T05:20:23;68.68;;;27.85;;
48375;SDS011;34178;50.904;11.560;2023-01-08T05:22:48;59.30;;;26.55;;
48375;SDS011;34178;50.904;11.560;2023-01-08T05:25:14;49.35;;;20.13;;
48375;SDS011;34178;50.904;11.560;2023-01-08T05:27:40;40.55;;;15.88;;
48375;SDS011;34178;50.904;11.560;2023-01-08T05:30:05;39.53;;;17.08;;
48375;SDS011;34178;50.904;11.560;2023-01-08T05:32:31;34.75;;;15.23;;
48375;SDS011;34178;50.904;11.560;2023-01-08T05:34:57;32.20;;;14.57;;
48375;SDS011;34178;50.904;11.560;2023-01-08T05:37:23;31.20;;;14.20;;
48375;SDS011;34178;50.904;11.560;2023-01-08T05:39:48;19.15;;;9.05;;
48375;SDS011;34178;50.904;11.560;2023-01-08T05:42:14;22.27;;;10.68;;
48375;SDS011;34178;50.904;11.560;2023-01-08T05:44:40;15.13;;;8.00;;
48375;SDS011;34178;50.904;11.560;2023-01-08T05:47:05;18.73;;;7.22;;
48375;SDS011;34178;50.904;11.560;2023-01-08T05:49:31;15.68;;;8.00;;
48375;SDS011;34178;50.904;11.560;2023-01-08T05:51:56;10.57;;;5.68;;
48375;SDS011;34178;50.904;11.560;2023-01-08T05:54:22;12.45;;;6.05;;
48375;SDS011;34178;50.904;11.560;2023-01-08T05:56:48;11.77;;;6.15;;
48375;SDS011;34178;50.904;11.560;2023-01-08T05:59:13;10.00;;;6.00;;
48375;SDS011;34178;50.904;11.560;2023-01-08T06:01:39;9.32;;;5.60;;
48375;SDS011;34178;50.904;11.560;2023-01-08T06:04:05;8.20;;;4.78;;
48375;SDS011;34178;50.904;11.560;2023-01-08T06:06:30;9.02;;;5.20;;
48375;SDS011;34178;50.904;11.560;2023-01-08T06:08:56;9.57;;;5.35;;
48375;SDS011;34178;50.904;11.560;2023-01-08T06:11:22;9.10;;;5.20;;
48375;SDS011;34178;50.904;11.560;2023-01-08T06:13:47;8.35;;;5.32;;
48375;SDS011;34178;50.904;11.560;2023-01-08T06:16:13;8.45;;;4.93;;
48375;SDS011;34178;50.904;11.560;2023-01-08T06:18:39;9.57;;;5.65;;
48375;SDS011;34178;50.904;11.560;2023-01-08T06:21:04;10.32;;;5.03;;
48375;SDS011;34178;50.904;11.560;2023-01-08T06:23:31;11.90;;;6.57;;
48375;SDS011;34178;50.904;11.560;2023-01-08T06:25:58;8.65;;;5.60;;
48375;SDS011;34178;50.904;11.560;2023-01-08T06:28:25;10.70;;;5.80;;
48375;SDS011;34178;50.904;11.560;2023-01-08T06:30:51;10.30;;;5.53;;
48375;SDS011;34178;50.904;11.560;2023-01-08T06:33:17;9.85;;;6.15;;
48375;SDS011;34178;50.904;11.560;2023-01-08T06:35:44;9.20;;;5.40;;
48375;SDS011;34178;50.904;11.560;2023-01-08T06:38:10;8.45;;;4.90;;
48375;SDS011;34178;50.904;11.560;2023-01-08T06:40:35;10.88;;;6.28;;
48375;SDS011;34178;50.904;11.560;2023-01-08T06:43:01;14.85;;;9.90;;
48375;SDS011;34178;50.904;11.560;2023-01-08T06:45:28;19.33;;;13.80;;
48375;SDS011;34178;50.904;11.560;2023-01-08T06:47:54;13.02;;;7.72;;
48375;SDS011;34178;50.904;11.560;2023-01-08T06:50:20;16.17;;;10.68;;
48375;SDS011;34178;50.904;11.560;2023-01-08T06:52:52;10.50;;;6.35;;
48375;SDS011;34178;50.904;11.560;2023-01-08T06:55:19;11.30;;;5.88;;
48375;SDS011;34178;50.904;11.560;2023-01-08T06:57:45;11.38;;;6.63;;
48375;SDS011;34178;50.904;11.560;2023-01-08T07:00:11;11.63;;;6.43;;
48375;SDS011;34178;50.904;11.560;2023-01-08T07:02:37;13.40;;;8.02;;
48375;SDS011;34178;50.904;11.560;2023-01-08T07:05:03;9.85;;;6.45;;
48375;SDS011;34178;50.904;11.560;2023-01-08T07:07:29;11.90;;;6.03;;
48375;SDS011;34178;50.904;11.560;2023-01-08T07:09:54;9.38;;;5.88;;
48375;SDS011;34178;50.904;11.560;2023-01-08T07:12:20;10.27;;;5.75;;
48375;SDS011;34178;50.904;11.560;2023-01-08T07:14:46;11.48;;;5.78;;
48375;SDS011;34178;50.904;11.560;2023-01-08T07:17:11;8.90;;;5.50;;
48375;SDS011;34178;50.904;11.560;2023-01-08T07:19:37;9.15;;;6.05;;
48375;SDS011;34178;50.904;11.560;2023-01-08T07:22:03;8.80;;;5.63;;
48375;SDS011;34178;50.904;11.560;2023-01-08T07:24:28;10.07;;;5.88;;
48375;SDS011;34178;50.904;11.560;2023-01-08T07:26:54;8.18;;;4.80;;
48375;SDS011;34178;50.904;11.560;2023-01-08T07:29:20;9.02;;;5.72;;
48375;SDS011;34178;50.904;11.560;2023-01-08T07:31:46;9.52;;;5.50;;
48375;SDS011;34178;50.904;11.560;2023-01-08T07:34:11;8.93;;;5.60;;
48375;SDS011;34178;50.904;11.560;2023-01-08T07:36:37;9.40;;;5.60;;
48375;SDS011;34178;50.904;11.560;2023-01-08T07:39:03;9.73;;;6.10;;
48375;SDS011;34178;50.904;11.560;2023-01-08T07:41:28;7.97;;;4.20;;
48375;SDS011;34178;50.904;11.560;2023-01-08T07:43:54;8.43;;;4.25;;
48375;SDS011;34178;50.904;11.560;2023-01-08T07:46:20;7.85;;;4.68;;
48375;SDS011;34178;50.904;11.560;2023-01-08T07:48:47;10.23;;;5.35;;
48375;SDS011;34178;50.904;11.560;2023-01-08T07:51:12;9.00;;;4.70;;
48375;SDS011;34178;50.904;11.560;2023-01-08T07:53:38;7.97;;;4.50;;
48375;SDS011;34178;50.904;11.560;2023-01-08T07:56:05;13.25;;;7.28;;
48375;SDS011;34178;50.904;11.560;2023-01-08T07:58:32;15.27;;;8.15;;
48375;SDS011;34178;50.904;11.560;2023-01-08T08:00:58;12.40;;;7.93;;
48375;SDS011;34178;50.904;11.560;2023-01-08T08:03:25;14.38;;;8.63;;
48375;SDS011;34178;50.904;11.560;2023-01-08T08:05:51;14.05;;;8.55;;
48375;SDS011;34178;50.904;11.560;2023-01-08T08:08:16;13.20;;;8.70;;
48375;SDS011;34178;50.904;11.560;2023-01-08T08:10:43;14.18;;;7.60;;
48375;SDS011;34178;50.904;11.560;2023-01-08T08:13:09;13.15;;;8.73;;
48375;SDS011;34178;50.904;11.560;2023-01-08T08:15:36;13.38;;;8.35;;
48375;SDS011;34178;50.904;11.560;2023-01-08T08:18:03;19.67;;;11.18;;
48375;SDS011;34178;50.904;11.560;2023-01-08T08:20:29;16.48;;;9.80;;
48375;SDS011;34178;50.904;11.560;2023-01-08T08:23:01;14.63;;;8.77;;
48375;SDS011;34178;50.904;11.560;2023-01-08T08:25:32;14.70;;;8.38;;
48375;SDS011;34178;50.904;11.560;2023-01-08T08:27:58;14.25;;;9.07;;
48375;SDS011;34178;50.904;11.560;2023-01-08T08:30:25;16.20;;;9.75;;
48375;SDS011;34178;50.904;11.560;2023-01-08T08:32:52;11.73;;;7.93;;
48375;SDS011;34178;50.904;11.560;2023-01-08T08:35:19;10.82;;;6.20;;
48375;SDS011;34178;50.904;11.560;2023-01-08T08:37:45;12.45;;;6.57;;
48375;SDS011;34178;50.904;11.560;2023-01-08T08:40:11;10.73;;;6.43;;
48375;SDS011;34178;50.904;11.560;2023-01-08T08:42:37;10.52;;;6.22;;
48375;SDS011;34178;50.904;11.560;2023-01-08T08:45:03;11.50;;;7.00;;
48375;SDS011;34178;50.904;11.560;2023-01-08T08:47:29;10.35;;;6.13;;
48375;SDS011;34178;50.904;11.560;2023-01-08T08:49:55;11.15;;;6.10;;
48375;SDS011;34178;50.904;11.560;2023-01-08T08:52:21;10.45;;;6.43;;
48375;SDS011;34178;50.904;11.560;2023-01-08T08:54:46;10.90;;;6.50;;
48375;SDS011;34178;50.904;11.560;2023-01-08T08:57:12;11.35;;;7.40;;
48375;SDS011;34178;50.904;11.560;2023-01-08T08:59:38;11.20;;;6.40;;
48375;SDS011;34178;50.904;11.560;2023-01-08T09:02:04;11.07;;;5.95;;
48375;SDS011;34178;50.904;11.560;2023-01-08T09:04:30;11.77;;;6.50;;
48375;SDS011;34178;50.904;11.560;2023-01-08T09:06:57;11.40;;;7.70;;
48375;SDS011;34178;50.904;11.560;2023-01-08T09:09:23;14.30;;;9.13;;
48375;SDS011;34178;50.904;11.560;2023-01-08T09:11:49;12.95;;;8.00;;
48375;SDS011;34178;50.904;11.560;2023-01-08T09:14:14;11.88;;;7.55;;
48375;SDS011;34178;50.904;11.560;2023-01-08T09:16:40;13.65;;;6.22;;
48375;SDS011;34178;50.904;11.560;2023-01-08T09:19:06;14.55;;;9.07;;
48375;SDS011;34178;50.904;11.560;2023-01-08T09:21:33;11.32;;;7.03;;
48375;SDS011;34178;50.904;11.560;2023-01-08T09:24:00;9.63;;;5.90;;
48375;SDS011;34178;50.904;11.560;2023-01-08T09:26:26;11.52;;;6.55;;
48375;SDS011;34178;50.904;11.560;2023-01-08T09:28:54;13.00;;;8.25;;
48375;SDS011;34178;50.904;11.560;2023-01-08T09:31:20;11.07;;;7.28;;
48375;SDS011;34178;50.904;11.560;2023-01-08T09:33:46;11.00;;;6.63;;
48375;SDS011;34178;50.904;11.560;2023-01-08T09:36:13;12.50;;;7.05;;
48375;SDS011;34178;50.904;11.560;2023-01-08T09:38:38;13.32;;;6.30;;
48375;SDS011;34178;50.904;11.560;2023-01-08T09:41:06;11.82;;;7.35;;
48375;SDS011;34178;50.904;11.560;2023-01-08T09:43:36;11.82;;;6.70;;
48375;SDS011;34178;50.904;11.560;2023-01-08T09:46:05;13.70;;;7.32;;
48375;SDS011;34178;50.904;11.560;2023-01-08T09:48:33;12.35;;;6.40;;
48375;SDS011;34178;50.904;11.560;2023-01-08T09:51:01;10.93;;;5.93;;
48375;SDS011;34178;50.904;11.560;2023-01-08T09:53:27;10.13;;;6.03;;
48375;SDS011;34178;50.904;11.560;2023-01-08T09:55:54;10.05;;;5.97;;
48375;SDS011;34178;50.904;11.560;2023-01-08T09:58:38;10.38;;;5.65;;
48375;SDS011;34178;50.904;11.560;2023-01-08T10:01:13;9.25;;;5.53;;
48375;SDS011;34178;50.904;11.560;2023-01-08T10:04:03;10.27;;;5.95;;
48375;SDS011;34178;50.904;11.560;2023-01-08T10:06:27;9.75;;;6.15;;
48375;SDS011;34178;50.904;11.560;2023-01-08T10:08:54;9.68;;;5.50;;
48375;SDS011;34178;50.904;11.560;2023-01-08T10:11:21;8.50;;;5.30;;
48375;SDS011;34178;50.904;11.560;2023-01-08T10:13:52;7.68;;;5.00;;
48375;SDS011;34178;50.904;11.560;2023-01-08T10:16:29;9.30;;;5.57;;
48375;SDS011;34178;50.904;11.560;2023-01-08T10:19:01;7.57;;;4.60;;
48375;SDS011;34178;50.904;11.560;2023-01-08T10:21:30;9.43;;;5.22;;
48375;SDS011;34178;50.904;11.560;2023-01-08T10:24:01;12.37;;;5.83;;
48375;SDS011;34178;50.904;11.560;2023-01-08T10:26:31;10.02;;;5.95;;
48375;SDS011;34178;50.904;11.560;2023-01-08T10:29:05;9.25;;;4.93;;
48375;SDS011;34178;50.904;11.560;2023-01-08T10:31:48;9.32;;;5.43;;
48375;SDS011;34178;50.904;11.560;2023-01-08T10:34:23;10.35;;;6.07;;
48375;SDS011;34178;50.904;11.560;2023-01-08T10:36:49;9.48;;;5.63;;
48375;SDS011;34178;50.904;11.560;2023-01-08T10:39:23;9.18;;;5.38;;
48375;SDS011;34178;50.904;11.560;2023-01-08T10:41:52;9.65;;;5.25;;
48375;SDS011;34178;50.904;11.560;2023-01-08T10:44:22;9.82;;;6.25;;
48375;SDS011;34178;50.904;11.560;2023-01-08T10:46:49;14.00;;;8.98;;
48375;SDS011;34178;50.904;11.560;2023-01-08T10:49:27;18.70;;;10.50;;
48375;SDS011;34178;50.904;11.560;2023-01-08T10:52:00;9.65;;;5.65;;
48375;SDS011;34178;50.904;11.560;2023-01-08T10:56:58;11.18;;;7.05;;
48375;SDS011;34178;50.904;11.560;2023-01-08T10:59:24;17.25;;;10.50;;
48375;SDS011;34178;50.904;11.560;2023-01-08T11:01:50;8.60;;;5.50;;
48375;SDS011;34178;50.904;11.560;2023-01-08T11:04:21;12.25;;;7.30;;
48375;SDS011;34178;50.904;11.560;2023-01-08T11:06:47;15.00;;;9.43;;
48375;SDS011;34178;50.904;11.560;2023-01-08T11:09:22;10.73;;;5.45;;
48375;SDS011;34178;50.904;11.560;2023-01-08T11:11:51;7.20;;;4.05;;
48375;SDS011;34178;50.904;11.560;2023-01-08T11:14:21;11.27;;;4.07;;
48375;SDS011;34178;50.904;11.560;2023-01-08T11:16:53;7.47;;;4.00;;
48375;SDS011;34178;50.904;11.560;2023-01-08T11:19:24;10.10;;;5.82;;
48375;SDS011;34178;50.904;11.560;2023-01-08T11:21:59;7.90;;;4.70;;
48375;SDS011;34178;50.904;11.560;2023-01-08T11:24:36;8.90;;;5.18;;
48375;SDS011;34178;50.904;11.560;2023-01-08T11:35:42;12.10;;;8.25;;
48375;SDS011;34178;50.904;11.560;2023-01-08T11:38:12;7.43;;;4.20;;
48375;SDS011;34178;50.904;11.560;2023-01-08T12:08:07;8.15;;;4.38;;
48375;SDS011;34178;50.904;11.560;2023-01-08T12:10:57;7.63;;;3.80;;
48375;SDS011;34178;50.904;11.560;2023-01-08T12:16:18;7.65;;;3.53;;
48375;SDS011;34178;50.904;11.560;2023-01-08T12:19:13;6.00;;;3.40;;
48375;SDS011;34178;50.904;11.560;2023-01-08T12:28:21;12.52;;;6.20;;
48375;SDS011;34178;50.904;11.560;2023-01-08T12:30:25;6.60;;;3.55;;
48375;SDS011;34178;50.904;11.560;2023-01-08T12:35:38;5.93;;;3.22;;
48375;SDS011;34178;50.904;11.560;2023-01-08T12:38:12;7.20;;;3.67;;
48375;SDS011;34178;50.904;11.560;2023-01-08T12:41:06;5.93;;;3.60;;
48375;SDS011;34178;50.904;11.560;2023-01-08T12:43:44;6.43;;;3.05;;
48375;SDS011;34178;50.904;11.560;2023-01-08T12:46:27;6.10;;;3.50;;
48375;SDS011;34178;50.904;11.560;2023-01-08T12:48:58;6.15;;;2.97;;
48375;SDS011;34178;50.904;11.560;2023-01-08T13:07:46;6.38;;;3.28;;
48375;SDS011;34178;50.904;11.560;2023-01-08T13:12:59;6.35;;;3.22;;
48375;SDS011;34178;50.904;11.560;2023-01-08T13:15:27;4.95;;;2.60;;
48375;SDS011;34178;50.904;11.560;2023-01-08T13:17:55;4.97;;;2.53;;
48375;SDS011;34178;50.904;11.560;2023-01-08T13:20:29;6.63;;;2.90;;
48375;SDS011;34178;50.904;11.560;2023-01-08T13:22:57;7.78;;;3.80;;
48375;SDS011;34178;50.904;11.560;2023-01-08T13:25:30;5.85;;;3.10;;
48375;SDS011;34178;50.904;11.560;2023-01-08T13:28:01;6.00;;;3.33;;
48375;SDS011;34178;50.904;11.560;2023-01-08T13:31:12;5.57;;;2.83;;
48375;SDS011;34178;50.904;11.560;2023-01-08T13:33:52;4.97;;;2.70;;
48375;SDS011;34178;50.904;11.560;2023-01-08T13:39:00;8.30;;;4.57;;
48375;SDS011;34178;50.904;11.560;2023-01-08T13:44:28;5.40;;;3.00;;
48375;SDS011;34178;50.904;11.560;2023-01-08T13:46:59;6.50;;;3.03;;
48375;SDS011;34178;50.904;11.560;2023-01-08T13:49:28;6.13;;;2.88;;
48375;SDS011;34178;50.904;11.560;2023-01-08T13:55:28;8.45;;;3.67;;
48375;SDS011;34178;50.904;11.560;2023-01-08T13:57:56;18.50;;;7.57;;
48375;SDS011;34178;50.904;11.560;2023-01-08T14:00:34;12.25;;;5.35;;
48375;SDS011;34178;50.904;11.560;2023-01-08T14:05:44;10.23;;;3.45;;
48375;SDS011;34178;50.904;11.560;2023-01-08T14:08:20;8.90;;;4.40;;
48375;SDS011;34178;50.904;11.560;2023-01-08T14:10:47;7.43;;;2.92;;
48375;SDS011;34178;50.904;11.560;2023-01-08T14:13:12;4.38;;;1.90;;
48375;SDS011;34178;50.904;11.560;2023-01-08T14:15:41;6.47;;;2.28;;
48375;SDS011;34178;50.904;11.560;2023-01-08T14:18:09;4.80;;;2.10;;
48375;SDS011;34178;50.904;11.560;2023-01-08T14:20:38;5.15;;;2.15;;
48375;SDS011;34178;50.904;11.560;2023-01-08T14:23:07;5.67;;;2.43;;
48375;SDS011;34178;50.904;11.560;2023-01-08T14:25:36;4.07;;;2.10;;
48375;SDS011;34178;50.904;11.560;2023-01-08T14:28:03;5.50;;;2.30;;
48375;SDS011;34178;50.904;11.560;2023-01-08T14:30:30;5.15;;;2.80;;
48375;SDS011;34178;50.904;11.560;2023-01-08T14:32:56;5.65;;;2.08;;
48375;SDS011;34178;50.904;11.560;2023-01-08T14:35:28;4.13;;;1.90;;
48375;SDS011;34178;50.904;11.560;2023-01-08T14:37:56;4.50;;;1.30;;
48375;SDS011;34178;50.904;11.560;2023-01-08T14:40:31;3.70;;;1.35;;
48375;SDS011;34178;50.904;11.560;2023-01-08T14:43:02;3.65;;;1.65;;
48375;SDS011;34178;50.904;11.560;2023-01-08T14:45:32;3.10;;;1.30;;
48375;SDS011;34178;50.904;11.560;2023-01-08T14:51:06;4.90;;;2.00;;
48375;SDS011;34178;50.904;11.560;2023-01-08T14:53:41;3.97;;;1.70;;
48375;SDS011;34178;50.904;11.560;2023-01-08T14:56:10;3.75;;;1.77;;
48375;SDS011;34178;50.904;11.560;2023-01-08T14:58:38;4.40;;;1.80;;
48375;SDS011;34178;50.904;11.560;2023-01-08T15:01:17;7.50;;;2.85;;
48375;SDS011;34178;50.904;11.560;2023-01-08T15:03:47;4.57;;;2.20;;
48375;SDS011;34178;50.904;11.560;2023-01-08T15:06:26;3.95;;;1.80;;
48375;SDS011;34178;50.904;11.560;2023-01-08T15:08:53;4.72;;;1.73;;
48375;SDS011;34178;50.904;11.560;2023-01-08T15:11:26;4.30;;;1.73;;
48375;SDS011;34178;50.904;11.560;2023-01-08T15:13:54;6.20;;;2.67;;
48375;SDS011;34178;50.904;11.560;2023-01-08T15:19:11;2.33;;;1.40;;
48375;SDS011;34178;50.904;11.560;2023-01-08T15:21:48;4.78;;;1.70;;
48375;SDS011;34178;50.904;11.560;2023-01-08T15:24:21;3.63;;;1.77;;
48375;SDS011;34178;50.904;11.560;2023-01-08T15:26:58;5.13;;;2.50;;
48375;SDS011;34178;50.904;11.560;2023-01-08T15:29:33;3.65;;;1.65;;
48375;SDS011;34178;50.904;11.560;2023-01-08T15:32:22;3.08;;;1.40;;
48375;SDS011;34178;50.904;11.560;2023-01-08T15:34:48;8.48;;;2.75;;
48375;SDS011;34178;50.904;11.560;2023-01-08T15:37:14;3.75;;;1.40;;
48375;SDS011;34178;50.904;11.560;2023-01-08T15:39:40;3.72;;;1.80;;
48375;SDS011;34178;50.904;11.560;2023-01-08T15:44:59;5.85;;;2.00;;
48375;SDS011;34178;50.904;11.560;2023-01-08T15:47:25;3.75;;;1.77;;
48375;SDS011;34178;50.904;11.560;2023-01-08T15:49:50;4.82;;;2.25;;
48375;SDS011;34178;50.904;11.560;2023-01-08T15:52:19;4.53;;;1.92;;
48375;SDS011;34178;50.904;11.560;2023-01-08T15:54:47;3.33;;;1.70;;
48375;SDS011;34178;50.904;11.560;2023-01-08T15:57:13;3.03;;;1.40;;
48375;SDS011;34178;50.904;11.560;2023-01-08T15:59:39;3.67;;;1.60;;
48375;SDS011;34178;50.904;11.560;2023-01-08T16:02:05;2.92;;;1.60;;
48375;SDS011;34178;50.904;11.560;2023-01-08T16:04:33;3.50;;;1.50;;
48375;SDS011;34178;50.904;11.560;2023-01-08T16:06:59;3.13;;;1.33;;
48375;SDS011;34178;50.904;11.560;2023-01-08T16:09:25;5.43;;;2.38;;
48375;SDS011;34178;50.904;11.560;2023-01-08T16:11:50;6.25;;;3.38;;
48375;SDS011;34178;50.904;11.560;2023-01-08T16:14:16;7.55;;;3.95;;
48375;SDS011;34178;50.904;11.560;2023-01-08T16:16:42;5.40;;;2.53;;
48375;SDS011;34178;50.904;11.560;2023-01-08T16:19:07;3.47;;;1.50;;
48375;SDS011;34178;50.904;11.560;2023-01-08T16:21:33;6.70;;;2.53;;
48375;SDS011;34178;50.904;11.560;2023-01-08T16:23:59;5.10;;;2.22;;